sensor_id;sensor_type;location;lat;lon;timestamp;P1;durP1;ratioP1;P2;durP2;ratioP2
45784;SDS011;31489;51.404;5.474;2023-02-28T00:01:11;7.70;;;4.30;;
45784;SDS011;31489;51.404;5.474;2023-02-28T00:03:38;7.40;;;4.65;;
45784;SDS011;31489;51.404;5.474;2023-02-28T00:06:04;8.18;;;4.43;;
45784;SDS011;31489;51.404;5.474;2023-02-28T00:08:31;9.48;;;4.78;;
45784;SDS011;31489;51.404;5.474;2023-02-28T00:11:00;7.15;;;4.70;;
45784;SDS011;31489;51.404;5.474;2023-02-28T00:13:33;7.18;;;4.53;;
45784;SDS011;31489;51.404;5.474;2023-02-28T00:16:02;9.18;;;4.70;;
45784;SDS011;31489;51.404;5.474;2023-02-28T00:18:29;6.88;;;4.60;;
45784;SDS011;31489;51.404;5.474;2023-02-28T00:20:55;8.73;;;4.25;;
45784;SDS011;31489;51.404;5.474;2023-02-28T00:23:20;10.98;;;4.70;;
45784;SDS011;31489;51.404;5.474;2023-02-28T00:25:48;6.90;;;4.80;;
45784;SDS011;31489;51.404;5.474;2023-02-28T00:28:15;6.78;;;4.53;;
45784;SDS011;31489;51.404;5.474;2023-02-28T00:30:43;8.05;;;4.72;;
45784;SDS011;31489;51.404;5.474;2023-02-28T00:33:09;9.43;;;4.70;;
45784;SDS011;31489;51.404;5.474;2023-02-28T00:35:35;8.40;;;5.40;;
45784;SDS011;31489;51.404;5.474;2023-02-28T00:38:01;8.27;;;5.38;;
45784;SDS011;31489;51.404;5.474;2023-02-28T00:40:27;8.27;;;4.55;;
45784;SDS011;31489;51.404;5.474;2023-02-28T00:42:53;7.60;;;4.40;;
45784;SDS011;31489;51.404;5.474;2023-02-28T00:45:19;7.00;;;4.93;;
45784;SDS011;31489;51.404;5.474;2023-02-28T00:47:44;6.20;;;4.53;;
45784;SDS011;31489;51.404;5.474;2023-02-28T00:50:11;9.20;;;5.43;;
45784;SDS011;31489;51.404;5.474;2023-02-28T00:52:37;6.50;;;4.68;;
45784;SDS011;31489;51.404;5.474;2023-02-28T00:55:05;7.30;;;4.97;;
45784;SDS011;31489;51.404;5.474;2023-02-28T00:57:31;7.07;;;4.97;;
45784;SDS011;31489;51.404;5.474;2023-02-28T00:59:56;8.38;;;4.60;;
45784;SDS011;31489;51.404;5.474;2023-02-28T01:02:22;6.78;;;4.25;;
45784;SDS011;31489;51.404;5.474;2023-02-28T01:04:51;14.38;;;4.95;;
45784;SDS011;31489;51.404;5.474;2023-02-28T01:07:16;12.15;;;5.28;;
45784;SDS011;31489;51.404;5.474;2023-02-28T01:09:42;9.85;;;4.85;;
45784;SDS011;31489;51.404;5.474;2023-02-28T01:12:08;7.00;;;5.13;;
45784;SDS011;31489;51.404;5.474;2023-02-28T01:14:34;7.18;;;5.28;;
45784;SDS011;31489;51.404;5.474;2023-02-28T01:16:59;7.28;;;4.70;;
45784;SDS011;31489;51.404;5.474;2023-02-28T01:19:25;7.90;;;5.18;;
45784;SDS011;31489;51.404;5.474;2023-02-28T01:21:51;6.32;;;4.93;;
45784;SDS011;31489;51.404;5.474;2023-02-28T01:24:17;10.35;;;5.35;;
45784;SDS011;31489;51.404;5.474;2023-02-28T01:26:42;7.90;;;5.28;;
45784;SDS011;31489;51.404;5.474;2023-02-28T01:29:08;7.65;;;4.90;;
45784;SDS011;31489;51.404;5.474;2023-02-28T01:31:34;6.82;;;4.15;;
45784;SDS011;31489;51.404;5.474;2023-02-28T01:34:00;7.05;;;5.00;;
45784;SDS011;31489;51.404;5.474;2023-02-28T01:36:25;9.52;;;4.90;;
45784;SDS011;31489;51.404;5.474;2023-02-28T01:38:51;5.47;;;4.15;;
45784;SDS011;31489;51.404;5.474;2023-02-28T01:41:21;7.65;;;5.10;;
45784;SDS011;31489;51.404;5.474;2023-02-28T01:46:22;6.15;;;3.97;;
45784;SDS011;31489;51.404;5.474;2023-02-28T01:48:53;8.60;;;4.30;;
45784;SDS011;31489;51.404;5.474;2023-02-28T01:51:26;8.55;;;4.90;;
45784;SDS011;31489;51.404;5.474;2023-02-28T01:53:56;7.72;;;4.85;;
45784;SDS011;31489;51.404;5.474;2023-02-28T01:56:28;7.45;;;4.75;;
45784;SDS011;31489;51.404;5.474;2023-02-28T01:58:58;7.07;;;4.95;;
45784;SDS011;31489;51.404;5.474;2023-02-28T02:01:24;9.15;;;4.43;;
45784;SDS011;31489;51.404;5.474;2023-02-28T02:03:56;8.57;;;4.60;;
45784;SDS011;31489;51.404;5.474;2023-02-28T02:06:25;6.90;;;5.13;;
45784;SDS011;31489;51.404;5.474;2023-02-28T02:08:54;6.05;;;4.93;;
45784;SDS011;31489;51.404;5.474;2023-02-28T02:11:20;8.35;;;4.97;;
45784;SDS011;31489;51.404;5.474;2023-02-28T02:37:36;7.53;;;4.63;;
45784;SDS011;31489;51.404;5.474;2023-02-28T02:42:59;7.55;;;4.68;;
45784;SDS011;31489;51.404;5.474;2023-02-28T02:45:32;9.48;;;4.22;;
45784;SDS011;31489;51.404;5.474;2023-02-28T02:48:03;6.70;;;4.75;;
45784;SDS011;31489;51.404;5.474;2023-02-28T02:50:37;7.95;;;4.93;;
45784;SDS011;31489;51.404;5.474;2023-02-28T02:53:06;8.55;;;4.70;;
45784;SDS011;31489;51.404;5.474;2023-02-28T02:55:40;8.00;;;4.97;;
45784;SDS011;31489;51.404;5.474;2023-02-28T02:58:10;10.97;;;5.17;;
45784;SDS011;31489;51.404;5.474;2023-02-28T03:00:48;6.15;;;4.53;;
45784;SDS011;31489;51.404;5.474;2023-02-28T03:03:18;10.90;;;5.05;;
45784;SDS011;31489;51.404;5.474;2023-02-28T03:05:54;6.97;;;4.72;;
45784;SDS011;31489;51.404;5.474;2023-02-28T03:08:23;6.95;;;4.53;;
45784;SDS011;31489;51.404;5.474;2023-02-28T03:10:50;7.53;;;5.00;;
45784;SDS011;31489;51.404;5.474;2023-02-28T03:30:24;9.07;;;5.30;;
45784;SDS011;31489;51.404;5.474;2023-02-28T03:32:59;8.80;;;4.60;;
45784;SDS011;31489;51.404;5.474;2023-02-28T03:35:31;8.43;;;4.93;;
45784;SDS011;31489;51.404;5.474;2023-02-28T03:38:05;9.05;;;4.25;;
45784;SDS011;31489;51.404;5.474;2023-02-28T03:40:41;8.25;;;5.18;;
45784;SDS011;31489;51.404;5.474;2023-02-28T03:43:13;10.43;;;5.00;;
45784;SDS011;31489;51.404;5.474;2023-02-28T03:45:44;8.10;;;4.78;;
45784;SDS011;31489;51.404;5.474;2023-02-28T03:50:38;6.95;;;4.80;;
45784;SDS011;31489;51.404;5.474;2023-02-28T03:53:07;6.60;;;3.95;;
45784;SDS011;31489;51.404;5.474;2023-02-28T03:55:39;8.40;;;4.00;;
45784;SDS011;31489;51.404;5.474;2023-02-28T03:58:26;8.25;;;4.22;;
45784;SDS011;31489;51.404;5.474;2023-02-28T04:00:55;6.65;;;4.43;;
45784;SDS011;31489;51.404;5.474;2023-02-28T04:03:32;6.10;;;3.88;;
45784;SDS011;31489;51.404;5.474;2023-02-28T04:05:59;6.07;;;3.75;;
45784;SDS011;31489;51.404;5.474;2023-02-28T04:08:27;7.75;;;4.60;;
45784;SDS011;31489;51.404;5.474;2023-02-28T04:11:02;7.28;;;3.97;;
45784;SDS011;31489;51.404;5.474;2023-02-28T04:13:33;5.20;;;4.20;;
45784;SDS011;31489;51.404;5.474;2023-02-28T04:15:59;6.10;;;4.57;;
45784;SDS011;31489;51.404;5.474;2023-02-28T04:18:25;8.65;;;4.13;;
45784;SDS011;31489;51.404;5.474;2023-02-28T04:20:50;6.55;;;3.65;;
45784;SDS011;31489;51.404;5.474;2023-02-28T04:23:16;6.35;;;4.10;;
45784;SDS011;31489;51.404;5.474;2023-02-28T04:25:42;7.43;;;3.80;;
45784;SDS011;31489;51.404;5.474;2023-02-28T04:28:08;7.72;;;4.30;;
45784;SDS011;31489;51.404;5.474;2023-02-28T04:30:34;5.75;;;3.80;;
45784;SDS011;31489;51.404;5.474;2023-02-28T04:33:00;5.88;;;3.83;;
45784;SDS011;31489;51.404;5.474;2023-02-28T04:35:26;8.32;;;4.43;;
45784;SDS011;31489;51.404;5.474;2023-02-28T04:37:52;6.22;;;4.38;;
45784;SDS011;31489;51.404;5.474;2023-02-28T04:40:18;6.03;;;4.07;;
45784;SDS011;31489;51.404;5.474;2023-02-28T04:42:43;7.45;;;4.30;;
45784;SDS011;31489;51.404;5.474;2023-02-28T04:45:09;5.78;;;3.63;;
45784;SDS011;31489;51.404;5.474;2023-02-28T04:47:35;8.85;;;4.53;;
45784;SDS011;31489;51.404;5.474;2023-02-28T04:50:01;7.47;;;4.25;;
45784;SDS011;31489;51.404;5.474;2023-02-28T04:52:28;6.85;;;4.55;;
45784;SDS011;31489;51.404;5.474;2023-02-28T04:54:54;9.38;;;4.47;;
45784;SDS011;31489;51.404;5.474;2023-02-28T04:57:20;6.35;;;4.10;;
45784;SDS011;31489;51.404;5.474;2023-02-28T04:59:46;7.28;;;4.75;;
45784;SDS011;31489;51.404;5.474;2023-02-28T05:02:11;9.07;;;4.28;;
45784;SDS011;31489;51.404;5.474;2023-02-28T05:04:37;6.50;;;3.97;;
45784;SDS011;31489;51.404;5.474;2023-02-28T05:07:03;5.65;;;4.00;;
45784;SDS011;31489;51.404;5.474;2023-02-28T05:09:28;7.32;;;3.83;;
45784;SDS011;31489;51.404;5.474;2023-02-28T05:11:54;6.22;;;4.20;;
45784;SDS011;31489;51.404;5.474;2023-02-28T05:14:21;6.47;;;4.13;;
45784;SDS011;31489;51.404;5.474;2023-02-28T05:16:46;6.18;;;4.05;;
45784;SDS011;31489;51.404;5.474;2023-02-28T05:19:12;5.85;;;3.95;;
45784;SDS011;31489;51.404;5.474;2023-02-28T05:21:39;7.80;;;4.35;;
45784;SDS011;31489;51.404;5.474;2023-02-28T05:24:08;7.93;;;4.13;;
45784;SDS011;31489;51.404;5.474;2023-02-28T05:26:36;7.07;;;4.05;;
45784;SDS011;31489;51.404;5.474;2023-02-28T05:29:03;4.95;;;3.83;;
45784;SDS011;31489;51.404;5.474;2023-02-28T05:31:28;6.57;;;4.15;;
45784;SDS011;31489;51.404;5.474;2023-02-28T05:33:54;7.57;;;3.75;;
45784;SDS011;31489;51.404;5.474;2023-02-28T05:36:20;9.90;;;3.92;;
45784;SDS011;31489;51.404;5.474;2023-02-28T05:38:49;8.63;;;3.80;;
45784;SDS011;31489;51.404;5.474;2023-02-28T05:41:16;9.25;;;4.10;;
45784;SDS011;31489;51.404;5.474;2023-02-28T05:43:42;7.00;;;4.10;;
45784;SDS011;31489;51.404;5.474;2023-02-28T05:46:09;10.77;;;4.00;;
45784;SDS011;31489;51.404;5.474;2023-02-28T05:48:36;5.55;;;3.70;;
45784;SDS011;31489;51.404;5.474;2023-02-28T05:51:04;7.80;;;3.97;;
45784;SDS011;31489;51.404;5.474;2023-02-28T05:53:31;7.47;;;4.25;;
45784;SDS011;31489;51.404;5.474;2023-02-28T05:55:57;5.63;;;3.85;;
45784;SDS011;31489;51.404;5.474;2023-02-28T05:58:22;6.95;;;4.22;;
45784;SDS011;31489;51.404;5.474;2023-02-28T06:00:50;5.93;;;4.43;;
45784;SDS011;31489;51.404;5.474;2023-02-28T06:03:16;6.50;;;4.18;;
45784;SDS011;31489;51.404;5.474;2023-02-28T06:05:42;6.18;;;4.07;;
45784;SDS011;31489;51.404;5.474;2023-02-28T06:08:07;6.97;;;4.43;;
45784;SDS011;31489;51.404;5.474;2023-02-28T06:10:34;6.20;;;3.80;;
45784;SDS011;31489;51.404;5.474;2023-02-28T06:13:00;8.70;;;4.07;;
45784;SDS011;31489;51.404;5.474;2023-02-28T06:15:27;9.10;;;4.18;;
45784;SDS011;31489;51.404;5.474;2023-02-28T06:17:53;8.40;;;4.43;;
45784;SDS011;31489;51.404;5.474;2023-02-28T06:20:21;7.95;;;4.15;;
45784;SDS011;31489;51.404;5.474;2023-02-28T06:22:53;7.72;;;3.95;;
45784;SDS011;31489;51.404;5.474;2023-02-28T06:25:20;6.10;;;3.60;;
45784;SDS011;31489;51.404;5.474;2023-02-28T06:27:46;8.00;;;3.80;;
45784;SDS011;31489;51.404;5.474;2023-02-28T06:30:13;10.95;;;4.43;;
45784;SDS011;31489;51.404;5.474;2023-02-28T06:32:39;5.28;;;3.70;;
45784;SDS011;31489;51.404;5.474;2023-02-28T06:35:05;6.65;;;4.15;;
45784;SDS011;31489;51.404;5.474;2023-02-28T06:37:31;10.15;;;4.35;;
45784;SDS011;31489;51.404;5.474;2023-02-28T06:39:57;10.00;;;4.10;;
45784;SDS011;31489;51.404;5.474;2023-02-28T06:42:24;10.18;;;4.57;;
45784;SDS011;31489;51.404;5.474;2023-02-28T06:44:54;7.57;;;3.70;;
45784;SDS011;31489;51.404;5.474;2023-02-28T06:47:20;7.28;;;4.20;;
45784;SDS011;31489;51.404;5.474;2023-02-28T06:49:46;9.32;;;4.43;;
45784;SDS011;31489;51.404;5.474;2023-02-28T06:52:12;8.73;;;3.95;;
45784;SDS011;31489;51.404;5.474;2023-02-28T06:54:38;5.80;;;3.90;;
45784;SDS011;31489;51.404;5.474;2023-02-28T06:57:03;6.07;;;4.07;;
45784;SDS011;31489;51.404;5.474;2023-02-28T06:59:29;6.53;;;3.67;;
45784;SDS011;31489;51.404;5.474;2023-02-28T07:01:55;8.38;;;3.92;;
45784;SDS011;31489;51.404;5.474;2023-02-28T07:04:21;6.82;;;4.18;;
45784;SDS011;31489;51.404;5.474;2023-02-28T07:06:47;6.25;;;3.42;;
45784;SDS011;31489;51.404;5.474;2023-02-28T07:09:13;8.48;;;4.28;;
45784;SDS011;31489;51.404;5.474;2023-02-28T07:11:38;7.90;;;3.97;;
45784;SDS011;31489;51.404;5.474;2023-02-28T07:14:04;5.85;;;3.78;;
45784;SDS011;31489;51.404;5.474;2023-02-28T07:16:30;5.97;;;4.32;;
45784;SDS011;31489;51.404;5.474;2023-02-28T07:18:56;5.32;;;3.60;;
45784;SDS011;31489;51.404;5.474;2023-02-28T07:21:21;6.25;;;3.35;;
45784;SDS011;31489;51.404;5.474;2023-02-28T07:23:47;6.93;;;3.05;;
45784;SDS011;31489;51.404;5.474;2023-02-28T07:26:16;8.70;;;3.33;;
45784;SDS011;31489;51.404;5.474;2023-02-28T07:28:45;5.05;;;3.35;;
45784;SDS011;31489;51.404;5.474;2023-02-28T07:31:12;4.88;;;2.90;;
45784;SDS011;31489;51.404;5.474;2023-02-28T07:33:39;4.30;;;2.80;;
45784;SDS011;31489;51.404;5.474;2023-02-28T07:36:06;4.53;;;3.13;;
45784;SDS011;31489;51.404;5.474;2023-02-28T07:38:34;4.35;;;2.92;;
45784;SDS011;31489;51.404;5.474;2023-02-28T07:41:01;5.70;;;3.10;;
45784;SDS011;31489;51.404;5.474;2023-02-28T07:43:30;5.82;;;2.95;;
45784;SDS011;31489;51.404;5.474;2023-02-28T07:46:01;4.28;;;2.78;;
45784;SDS011;31489;51.404;5.474;2023-02-28T07:48:28;8.18;;;2.95;;
45784;SDS011;31489;51.404;5.474;2023-02-28T07:50:54;4.43;;;2.95;;
45784;SDS011;31489;51.404;5.474;2023-02-28T07:53:20;7.38;;;2.83;;
45784;SDS011;31489;51.404;5.474;2023-02-28T07:55:47;4.32;;;2.67;;
45784;SDS011;31489;51.404;5.474;2023-02-28T07:58:13;10.20;;;2.83;;
45784;SDS011;31489;51.404;5.474;2023-02-28T08:00:38;5.95;;;2.88;;
45784;SDS011;31489;51.404;5.474;2023-02-28T08:03:04;6.43;;;2.38;;
45784;SDS011;31489;51.404;5.474;2023-02-28T08:05:29;3.92;;;2.47;;
45784;SDS011;31489;51.404;5.474;2023-02-28T08:07:55;3.78;;;2.17;;
45784;SDS011;31489;51.404;5.474;2023-02-28T08:10:22;4.65;;;2.50;;
45784;SDS011;31489;51.404;5.474;2023-02-28T08:12:48;3.53;;;2.63;;
45784;SDS011;31489;51.404;5.474;2023-02-28T08:15:14;4.03;;;2.10;;
45784;SDS011;31489;51.404;5.474;2023-02-28T08:17:40;2.35;;;2.10;;
45784;SDS011;31489;51.404;5.474;2023-02-28T08:20:05;3.55;;;2.10;;
45784;SDS011;31489;51.404;5.474;2023-02-28T08:22:32;3.17;;;2.03;;
45784;SDS011;31489;51.404;5.474;2023-02-28T08:24:58;3.80;;;2.17;;
45784;SDS011;31489;51.404;5.474;2023-02-28T08:27:23;4.22;;;2.10;;
45784;SDS011;31489;51.404;5.474;2023-02-28T08:29:49;3.72;;;2.30;;
45784;SDS011;31489;51.404;5.474;2023-02-28T08:32:15;2.85;;;1.95;;
45784;SDS011;31489;51.404;5.474;2023-02-28T08:34:40;2.63;;;2.17;;
45784;SDS011;31489;51.404;5.474;2023-02-28T08:37:06;2.53;;;1.80;;
45784;SDS011;31489;51.404;5.474;2023-02-28T08:39:35;3.22;;;1.92;;
45784;SDS011;31489;51.404;5.474;2023-02-28T08:42:01;4.18;;;1.90;;
45784;SDS011;31489;51.404;5.474;2023-02-28T08:44:28;2.80;;;1.92;;
45784;SDS011;31489;51.404;5.474;2023-02-28T08:46:54;3.10;;;1.88;;
45784;SDS011;31489;51.404;5.474;2023-02-28T08:49:19;3.45;;;1.98;;
45784;SDS011;31489;51.404;5.474;2023-02-28T08:51:45;2.53;;;1.92;;
45784;SDS011;31489;51.404;5.474;2023-02-28T08:54:11;2.70;;;1.95;;
45784;SDS011;31489;51.404;5.474;2023-02-28T08:56:37;2.65;;;1.70;;
45784;SDS011;31489;51.404;5.474;2023-02-28T08:59:03;1.92;;;1.73;;
45784;SDS011;31489;51.404;5.474;2023-02-28T09:01:34;3.35;;;1.70;;
45784;SDS011;31489;51.404;5.474;2023-02-28T09:04:01;2.90;;;1.80;;
45784;SDS011;31489;51.404;5.474;2023-02-28T09:06:32;2.05;;;1.88;;
45784;SDS011;31489;51.404;5.474;2023-02-28T09:08:57;4.28;;;1.50;;
45784;SDS011;31489;51.404;5.474;2023-02-28T09:11:24;3.80;;;1.42;;
45784;SDS011;31489;51.404;5.474;2023-02-28T09:13:50;2.78;;;1.73;;
45784;SDS011;31489;51.404;5.474;2023-02-28T09:16:16;2.25;;;1.50;;
45784;SDS011;31489;51.404;5.474;2023-02-28T09:18:43;2.20;;;1.75;;
45784;SDS011;31489;51.404;5.474;2023-02-28T09:21:10;2.25;;;1.60;;
45784;SDS011;31489;51.404;5.474;2023-02-28T09:23:41;3.33;;;1.50;;
45784;SDS011;31489;51.404;5.474;2023-02-28T09:26:23;3.40;;;1.73;;
45784;SDS011;31489;51.404;5.474;2023-02-28T09:28:51;3.97;;;1.67;;
45784;SDS011;31489;51.404;5.474;2023-02-28T09:31:24;1.65;;;1.38;;
45784;SDS011;31489;51.404;5.474;2023-02-28T09:33:52;4.30;;;1.75;;
45784;SDS011;31489;51.404;5.474;2023-02-28T09:36:19;3.05;;;1.70;;
45784;SDS011;31489;51.404;5.474;2023-02-28T09:38:46;2.00;;;1.30;;
45784;SDS011;31489;51.404;5.474;2023-02-28T09:41:21;2.60;;;1.40;;
45784;SDS011;31489;51.404;5.474;2023-02-28T09:43:54;4.00;;;1.30;;
45784;SDS011;31489;51.404;5.474;2023-02-28T09:46:29;2.47;;;1.40;;
45784;SDS011;31489;51.404;5.474;2023-02-28T09:49:12;2.00;;;1.42;;
45784;SDS011;31489;51.404;5.474;2023-02-28T09:51:46;2.17;;;1.48;;
45784;SDS011;31489;51.404;5.474;2023-02-28T09:54:20;1.58;;;1.17;;
45784;SDS011;31489;51.404;5.474;2023-02-28T10:05:30;2.35;;;2.03;;
45784;SDS011;31489;51.404;5.474;2023-02-28T10:08:14;1.63;;;1.23;;
45784;SDS011;31489;51.404;5.474;2023-02-28T10:11:23;3.00;;;1.45;;
45784;SDS011;31489;51.404;5.474;2023-02-28T10:21:55;2.28;;;1.40;;
45784;SDS011;31489;51.404;5.474;2023-02-28T10:24:35;1.10;;;0.98;;
45784;SDS011;31489;51.404;5.474;2023-02-28T10:27:20;3.53;;;1.50;;
45784;SDS011;31489;51.404;5.474;2023-02-28T10:29:55;2.38;;;1.38;;
45784;SDS011;31489;51.404;5.474;2023-02-28T10:32:23;1.88;;;1.40;;
45784;SDS011;31489;51.404;5.474;2023-02-28T10:34:55;3.13;;;1.27;;
45784;SDS011;31489;51.404;5.474;2023-02-28T10:37:46;2.70;;;1.25;;
45784;SDS011;31489;51.404;5.474;2023-02-28T10:42:57;2.05;;;1.60;;
45784;SDS011;31489;51.404;5.474;2023-02-28T10:45:26;1.52;;;1.35;;
45784;SDS011;31489;51.404;5.474;2023-02-28T10:47:59;1.30;;;1.20;;
45784;SDS011;31489;51.404;5.474;2023-02-28T10:53:22;3.25;;;1.15;;
45784;SDS011;31489;51.404;5.474;2023-02-28T11:01:43;2.10;;;1.27;;
45784;SDS011;31489;51.404;5.474;2023-02-28T11:07:00;1.02;;;1.02;;
45784;SDS011;31489;51.404;5.474;2023-02-28T11:09:33;1.10;;;1.00;;
45784;SDS011;31489;51.404;5.474;2023-02-28T11:12:01;2.75;;;1.50;;
45784;SDS011;31489;51.404;5.474;2023-02-28T11:14:30;2.45;;;1.50;;
45784;SDS011;31489;51.404;5.474;2023-02-28T11:17:00;1.30;;;1.20;;
45784;SDS011;31489;51.404;5.474;2023-02-28T11:19:41;2.25;;;1.20;;
45784;SDS011;31489;51.404;5.474;2023-02-28T11:22:15;1.45;;;1.20;;
45784;SDS011;31489;51.404;5.474;2023-02-28T11:24:45;1.30;;;1.20;;
45784;SDS011;31489;51.404;5.474;2023-02-28T11:30:40;2.05;;;1.42;;
45784;SDS011;31489;51.404;5.474;2023-02-28T11:35:46;1.52;;;1.17;;
45784;SDS011;31489;51.404;5.474;2023-02-28T11:38:14;1.90;;;1.33;;
45784;SDS011;31489;51.404;5.474;2023-02-28T11:40:48;1.65;;;1.40;;
45784;SDS011;31489;51.404;5.474;2023-02-28T11:49:02;2.92;;;1.40;;
45784;SDS011;31489;51.404;5.474;2023-02-28T11:52:36;1.33;;;1.13;;
45784;SDS011;31489;51.404;5.474;2023-02-28T11:55:00;3.15;;;1.38;;
45784;SDS011;31489;51.404;5.474;2023-02-28T11:57:44;1.83;;;1.55;;
45784;SDS011;31489;51.404;5.474;2023-02-28T12:03:44;3.92;;;1.23;;
45784;SDS011;31489;51.404;5.474;2023-02-28T12:19:51;3.13;;;1.57;;
45784;SDS011;31489;51.404;5.474;2023-02-28T12:22:36;2.40;;;1.58;;
45784;SDS011;31489;51.404;5.474;2023-02-28T12:25:43;3.70;;;1.50;;
45784;SDS011;31489;51.404;5.474;2023-02-28T12:28:14;1.40;;;1.20;;
45784;SDS011;31489;51.404;5.474;2023-02-28T12:31:09;5.10;;;1.60;;
45784;SDS011;31489;51.404;5.474;2023-02-28T12:33:38;1.70;;;1.27;;
45784;SDS011;31489;51.404;5.474;2023-02-28T12:36:09;2.75;;;1.50;;
45784;SDS011;31489;51.404;5.474;2023-02-28T12:41:37;2.72;;;1.60;;
45784;SDS011;31489;51.404;5.474;2023-02-28T12:44:12;2.47;;;1.60;;
45784;SDS011;31489;51.404;5.474;2023-02-28T12:46:47;2.45;;;1.50;;
45784;SDS011;31489;51.404;5.474;2023-02-28T12:49:17;3.80;;;1.60;;
45784;SDS011;31489;51.404;5.474;2023-02-28T12:51:49;1.90;;;1.50;;
45784;SDS011;31489;51.404;5.474;2023-02-28T12:54:19;3.67;;;1.77;;
45784;SDS011;31489;51.404;5.474;2023-02-28T12:57:02;2.30;;;1.70;;
45784;SDS011;31489;51.404;5.474;2023-02-28T13:05:16;5.40;;;1.70;;
45784;SDS011;31489;51.404;5.474;2023-02-28T13:07:58;1.63;;;1.52;;
45784;SDS011;31489;51.404;5.474;2023-02-28T13:10:38;1.75;;;1.30;;
45784;SDS011;31489;51.404;5.474;2023-02-28T13:13:15;1.90;;;1.40;;
45784;SDS011;31489;51.404;5.474;2023-02-28T13:16:05;2.63;;;1.20;;
45784;SDS011;31489;51.404;5.474;2023-02-28T13:18:36;1.80;;;1.60;;
45784;SDS011;31489;51.404;5.474;2023-02-28T13:21:02;1.83;;;1.50;;
45784;SDS011;31489;51.404;5.474;2023-02-28T13:24:13;2.28;;;1.45;;
45784;SDS011;31489;51.404;5.474;2023-02-28T13:29:00;2.65;;;1.73;;
45784;SDS011;31489;51.404;5.474;2023-02-28T13:31:29;3.47;;;1.65;;
45784;SDS011;31489;51.404;5.474;2023-02-28T13:36:30;2.28;;;1.30;;
45784;SDS011;31489;51.404;5.474;2023-02-28T13:39:01;2.25;;;1.50;;
45784;SDS011;31489;51.404;5.474;2023-02-28T13:49:31;2.13;;;1.77;;
45784;SDS011;31489;51.404;5.474;2023-02-28T13:57:50;1.75;;;1.65;;
45784;SDS011;31489;51.404;5.474;2023-02-28T14:06:30;2.67;;;1.75;;
45784;SDS011;31489;51.404;5.474;2023-02-28T14:11:51;2.45;;;1.50;;
45784;SDS011;31489;51.404;5.474;2023-02-28T14:17:05;2.25;;;1.63;;
45784;SDS011;31489;51.404;5.474;2023-02-28T14:19:39;1.52;;;1.42;;
45784;SDS011;31489;51.404;5.474;2023-02-28T14:22:13;2.13;;;1.90;;
45784;SDS011;31489;51.404;5.474;2023-02-28T14:33:14;2.38;;;1.50;;
45784;SDS011;31489;51.404;5.474;2023-02-28T14:38:48;2.75;;;1.50;;
45784;SDS011;31489;51.404;5.474;2023-02-28T14:41:22;3.63;;;1.75;;
45784;SDS011;31489;51.404;5.474;2023-02-28T14:43:57;2.30;;;1.53;;
45784;SDS011;31489;51.404;5.474;2023-02-28T14:46:35;2.35;;;1.60;;
45784;SDS011;31489;51.404;5.474;2023-02-28T14:49:04;2.08;;;1.60;;
45784;SDS011;31489;51.404;5.474;2023-02-28T14:51:32;2.17;;;1.65;;
45784;SDS011;31489;51.404;5.474;2023-02-28T14:53:59;3.30;;;1.60;;
45784;SDS011;31489;51.404;5.474;2023-02-28T14:56:32;2.53;;;1.80;;
45784;SDS011;31489;51.404;5.474;2023-02-28T14:59:03;2.58;;;2.00;;
45784;SDS011;31489;51.404;5.474;2023-02-28T15:01:30;3.83;;;1.55;;
45784;SDS011;31489;51.404;5.474;2023-02-28T15:04:02;3.40;;;1.73;;
45784;SDS011;31489;51.404;5.474;2023-02-28T15:06:30;5.03;;;2.17;;
45784;SDS011;31489;51.404;5.474;2023-02-28T15:09:07;2.55;;;1.80;;
45784;SDS011;31489;51.404;5.474;2023-02-28T15:11:34;5.22;;;1.67;;
45784;SDS011;31489;51.404;5.474;2023-02-28T15:14:01;1.70;;;1.60;;
45784;SDS011;31489;51.404;5.474;2023-02-28T15:16:33;3.83;;;1.98;;
45784;SDS011;31489;51.404;5.474;2023-02-28T15:21:48;2.92;;;1.65;;
45784;SDS011;31489;51.404;5.474;2023-02-28T15:24:18;5.20;;;2.15;;
45784;SDS011;31489;51.404;5.474;2023-02-28T15:27:06;2.88;;;1.75;;
45784;SDS011;31489;51.404;5.474;2023-02-28T15:29:42;2.22;;;1.83;;
45784;SDS011;31489;51.404;5.474;2023-02-28T15:32:34;2.53;;;2.00;;
45784;SDS011;31489;51.404;5.474;2023-02-28T15:40:25;2.03;;;1.67;;
45784;SDS011;31489;51.404;5.474;2023-02-28T15:45:47;2.13;;;1.60;;
45784;SDS011;31489;51.404;5.474;2023-02-28T15:48:16;3.38;;;1.92;;
45784;SDS011;31489;51.404;5.474;2023-02-28T15:50:48;4.35;;;1.88;;
45784;SDS011;31489;51.404;5.474;2023-02-28T15:53:22;2.17;;;1.63;;
45784;SDS011;31489;51.404;5.474;2023-02-28T15:58:24;2.55;;;1.63;;
45784;SDS011;31489;51.404;5.474;2023-02-28T16:01:01;3.83;;;1.83;;
45784;SDS011;31489;51.404;5.474;2023-02-28T16:03:43;1.90;;;1.52;;
45784;SDS011;31489;51.404;5.474;2023-02-28T16:06:33;2.15;;;1.60;;
45784;SDS011;31489;51.404;5.474;2023-02-28T16:08:57;1.70;;;1.60;;
45784;SDS011;31489;51.404;5.474;2023-02-28T16:11:23;4.13;;;1.67;;
45784;SDS011;31489;51.404;5.474;2023-02-28T16:13:49;3.17;;;1.92;;
45784;SDS011;31489;51.404;5.474;2023-02-28T16:16:20;4.50;;;1.98;;
45784;SDS011;31489;51.404;5.474;2023-02-28T16:18:47;2.38;;;1.75;;
45784;SDS011;31489;51.404;5.474;2023-02-28T16:21:13;2.95;;;1.45;;
45784;SDS011;31489;51.404;5.474;2023-02-28T16:23:40;3.00;;;1.80;;
45784;SDS011;31489;51.404;5.474;2023-02-28T16:26:06;2.60;;;1.83;;
45784;SDS011;31489;51.404;5.474;2023-02-28T16:28:34;2.92;;;1.85;;
45784;SDS011;31489;51.404;5.474;2023-02-28T16:31:03;2.67;;;1.60;;
45784;SDS011;31489;51.404;5.474;2023-02-28T16:33:35;2.10;;;1.90;;
45784;SDS011;31489;51.404;5.474;2023-02-28T16:36:01;4.18;;;1.80;;
45784;SDS011;31489;51.404;5.474;2023-02-28T16:38:27;2.08;;;1.88;;
45784;SDS011;31489;51.404;5.474;2023-02-28T16:40:55;2.53;;;1.83;;
45784;SDS011;31489;51.404;5.474;2023-02-28T16:43:24;2.15;;;1.40;;
45784;SDS011;31489;51.404;5.474;2023-02-28T16:45:55;3.65;;;1.90;;
45784;SDS011;31489;51.404;5.474;2023-02-28T16:48:24;2.10;;;1.50;;
45784;SDS011;31489;51.404;5.474;2023-02-28T16:50:50;2.55;;;1.65;;
45784;SDS011;31489;51.404;5.474;2023-02-28T16:53:16;4.63;;;1.88;;
45784;SDS011;31489;51.404;5.474;2023-02-28T16:55:42;2.30;;;1.70;;
45784;SDS011;31489;51.404;5.474;2023-02-28T16:58:10;2.00;;;1.40;;
45784;SDS011;31489;51.404;5.474;2023-02-28T17:00:40;1.92;;;1.63;;
45784;SDS011;31489;51.404;5.474;2023-02-28T17:03:09;2.92;;;1.70;;
45784;SDS011;31489;51.404;5.474;2023-02-28T17:05:50;3.45;;;1.75;;
45784;SDS011;31489;51.404;5.474;2023-02-28T17:08:16;1.98;;;1.52;;
45784;SDS011;31489;51.404;5.474;2023-02-28T17:10:42;3.92;;;1.90;;
45784;SDS011;31489;51.404;5.474;2023-02-28T17:13:08;3.10;;;1.90;;
45784;SDS011;31489;51.404;5.474;2023-02-28T17:15:34;2.78;;;1.85;;
45784;SDS011;31489;51.404;5.474;2023-02-28T17:18:01;2.08;;;1.63;;
45784;SDS011;31489;51.404;5.474;2023-02-28T17:20:38;3.75;;;1.75;;
45784;SDS011;31489;51.404;5.474;2023-02-28T17:23:03;2.38;;;1.80;;
45784;SDS011;31489;51.404;5.474;2023-02-28T17:25:29;2.22;;;1.85;;
45784;SDS011;31489;51.404;5.474;2023-02-28T17:27:55;3.03;;;1.80;;
45784;SDS011;31489;51.404;5.474;2023-02-28T17:30:22;2.85;;;1.70;;
45784;SDS011;31489;51.404;5.474;2023-02-28T17:32:52;2.40;;;1.70;;
45784;SDS011;31489;51.404;5.474;2023-02-28T17:35:21;2.15;;;1.75;;
45784;SDS011;31489;51.404;5.474;2023-02-28T17:37:47;2.13;;;1.70;;
45784;SDS011;31489;51.404;5.474;2023-02-28T17:40:17;7.07;;;1.73;;
45784;SDS011;31489;51.404;5.474;2023-02-28T17:42:45;2.83;;;1.77;;
45784;SDS011;31489;51.404;5.474;2023-02-28T17:45:12;4.60;;;1.92;;
45784;SDS011;31489;51.404;5.474;2023-02-28T17:47:39;2.22;;;1.70;;
45784;SDS011;31489;51.404;5.474;2023-02-28T17:50:12;3.67;;;1.63;;
45784;SDS011;31489;51.404;5.474;2023-02-28T17:52:40;2.65;;;1.80;;
45784;SDS011;31489;51.404;5.474;2023-02-28T17:55:06;3.40;;;1.75;;